Time;durP1;ratioP1;P1;durP2;ratioP2;P2;SDS_P1;SDS_P2;PMS_P1;PMS_P2;Temp;Humidity;BMP_temperature;BMP_pressure;BME280_temperature;BME280_humidity;BME280_pressure;Samples;Min_cycle;Max_cycle;Signal;HPM_P1;HPM_P2
2024/01/29 00:03:17;;;;;;;4.93;2.95;;;;;;;4.97;54.39;101472.44;10450437;28;20048;-77
2024/01/29 00:08:20;;;;;;;9.02;2.42;;;;;;;4.89;54.79;101470.06;10450116;28;20044;-78
2024/01/29 00:13:24;;;;;;;4.45;2.50;;;;;;;4.88;54.77;101449.69;10444280;28;20057;-79
2024/01/29 00:18:27;;;;;;;3.15;2.00;;;;;;;4.80;54.98;101450.00;10435493;28;20152;-78
2024/01/29 00:23:31;;;;;;;4.32;2.17;;;;;;;4.64;55.35;101440.03;10433371;28;20051;-77
2024/01/29 00:28:35;;;;;;;3.00;2.50;;;;;;;4.68;55.43;101436.31;10439819;28;20055;-77
2024/01/29 00:33:38;;;;;;;4.93;2.63;;;;;;;4.52;55.58;101438.72;10436833;28;20044;-80
2024/01/29 00:38:42;;;;;;;4.10;2.33;;;;;;;4.53;55.76;101429.81;10431958;28;20044;-77
2024/01/29 00:43:47;;;;;;;3.33;2.20;;;;;;;4.66;55.49;101428.38;10432798;28;20509;-77
2024/01/29 00:48:50;;;;;;;3.65;2.22;;;;;;;4.60;55.16;101417.97;10433689;28;20061;-77
2024/01/29 00:53:53;;;;;;;4.63;2.10;;;;;;;4.54;55.35;101418.22;10438279;28;20140;-79
2024/01/29 00:58:58;;;;;;;4.53;2.13;;;;;;;4.70;54.95;101415.84;10438591;28;20052;-77
2024/01/29 01:04:01;;;;;;;4.43;2.20;;;;;;;4.66;54.99;101420.41;10431757;28;20420;-78
2024/01/29 01:09:04;;;;;;;4.72;2.28;;;;;;;4.67;54.51;101421.28;10436296;28;20681;-77
2024/01/29 01:14:08;;;;;;;5.22;2.40;;;;;;;4.66;54.54;101419.53;10432733;28;20045;-79
2024/01/29 01:19:11;;;;;;;3.25;2.40;;;;;;;4.59;55.12;101430.44;10437245;28;20044;-77
2024/01/29 01:24:15;;;;;;;2.97;2.42;;;;;;;4.65;55.04;101421.34;10447818;28;20154;-77
2024/01/29 01:29:19;;;;;;;3.38;2.22;;;;;;;4.61;55.23;101417.06;10463836;28;20048;-77
2024/01/29 01:34:22;;;;;;;4.38;2.33;;;;;;;4.49;55.50;101421.06;10453154;28;20044;-77
2024/01/29 01:39:25;;;;;;;4.90;2.53;;;;;;;4.42;55.82;101408.94;10449235;28;20716;-78
2024/01/29 01:44:30;;;;;;;6.13;2.67;;;;;;;4.49;56.11;101418.41;10457899;28;20124;-78
2024/01/29 01:49:33;;;;;;;3.60;2.25;;;;;;;4.40;56.59;101401.00;10478593;28;20052;-78
2024/01/29 01:54:37;;;;;;;5.78;2.40;;;;;;;4.21;56.98;101415.94;10453620;28;20052;-78
2024/01/29 01:59:42;;;;;;;4.88;2.28;;;;;;;4.34;56.90;101411.03;10461695;28;20053;-78
2024/01/29 02:04:48;;;;;;;4.65;2.30;;;;;;;4.32;56.77;101396.91;10485416;28;20056;-79
2024/01/29 02:09:51;;;;;;;4.90;2.70;;;;;;;4.34;56.92;101400.41;10453258;28;20187;-79
2024/01/29 02:14:55;;;;;;;6.88;2.47;;;;;;;4.34;56.91;101406.56;10451660;28;20123;-78
2024/01/29 02:19:59;;;;;;;5.32;2.13;;;;;;;4.32;57.07;101402.25;10440228;28;20052;-78
2024/01/29 02:25:04;;;;;;;3.85;2.60;;;;;;;4.24;57.18;101399.88;10438150;28;20414;-78
2024/01/29 02:30:08;;;;;;;4.68;2.45;;;;;;;4.19;57.33;101396.50;10451783;28;20048;-79
2024/01/29 02:48:47;;;;;;;5.00;2.58;;;;;;;4.07;57.55;101408.50;10455583;28;20595;-78
2024/01/29 02:53:50;;;;;;;3.25;2.28;;;;;;;4.18;57.16;101405.44;10449912;28;20048;-75
2024/01/29 02:58:53;;;;;;;5.43;2.40;;;;;;;4.11;57.54;101407.47;10436999;28;20063;-78
2024/01/29 03:03:57;;;;;;;2.78;2.17;;;;;;;4.06;57.85;101409.44;10449287;28;20056;-77
2024/01/29 03:09:00;;;;;;;2.40;1.98;;;;;;;4.04;57.80;101411.28;10444888;28;20072;-76
2024/01/29 03:14:03;;;;;;;2.83;2.08;;;;;;;4.04;57.87;101421.91;10445178;28;20523;-77
2024/01/29 03:19:08;;;;;;;4.10;2.25;;;;;;;3.95;58.36;101423.13;10443032;28;20052;-77
2024/01/29 03:24:11;;;;;;;4.82;2.33;;;;;;;3.84;59.01;101427.06;10450843;28;20048;-78
2024/01/29 03:29:14;;;;;;;4.03;2.13;;;;;;;3.77;59.14;101434.41;10447638;28;20062;-78
2024/01/29 03:34:18;;;;;;;4.05;2.45;;;;;;;3.74;59.13;101439.84;10450833;28;20068;-78
2024/01/29 03:39:21;;;;;;;5.70;2.70;;;;;;;3.73;59.28;101443.44;10449329;28;20044;-78
2024/01/29 03:44:24;;;;;;;4.30;2.20;;;;;;;3.70;59.52;101439.09;10444311;28;20078;-78
2024/01/29 03:49:28;;;;;;;4.32;2.58;;;;;;;3.61;59.77;101444.72;10443767;28;20049;-78
2024/01/29 03:54:32;;;;;;;3.65;2.38;;;;;;;3.65;59.75;101448.16;10441775;28;20476;-78
2024/01/29 03:59:36;;;;;;;6.57;2.40;;;;;;;3.59;60.02;101443.91;10446027;28;20049;-78
2024/01/29 04:04:40;;;;;;;3.92;2.42;;;;;;;3.55;60.37;101444.06;10437291;28;20049;-77
2024/01/29 04:09:43;;;;;;;5.25;2.30;;;;;;;3.49;60.58;101439.84;10450883;28;20129;-77
2024/01/29 04:14:46;;;;;;;3.67;2.40;;;;;;;3.43;60.77;101442.72;10454360;28;20131;-79
2024/01/29 04:19:51;;;;;;;4.88;2.13;;;;;;;3.42;61.00;101438.31;10483616;28;20050;-77
2024/01/29 04:24:53;;;;;;;5.03;2.65;;;;;;;3.42;61.28;101433.00;10473438;28;20044;-79
2024/01/29 04:29:56;;;;;;;2.63;2.42;;;;;;;3.39;61.31;101430.44;10485755;28;20681;-78
2024/01/29 04:35:01;;;;;;;4.25;3.00;;;;;;;3.40;61.21;101433.06;10493906;28;20507;-78
2024/01/29 04:40:08;;;;;;;4.80;2.35;;;;;;;3.43;61.26;101430.31;10488728;28;20053;-78
2024/01/29 04:45:11;;;;;;;5.05;2.35;;;;;;;3.42;61.39;101427.69;10509116;28;20241;-78
2024/01/29 04:50:15;;;;;;;3.38;2.45;;;;;;;3.46;61.24;101426.69;10490971;28;20040;-78
2024/01/29 04:55:19;;;;;;;5.07;2.53;;;;;;;3.48;61.04;101430.13;10458812;28;21274;-77
2024/01/29 05:00:22;;;;;;;5.25;2.40;;;;;;;3.54;60.98;101431.69;10479672;28;20132;-78
2024/01/29 05:05:26;;;;;;;3.95;2.50;;;;;;;3.54;60.90;101439.66;10478562;28;20131;-77
2024/01/29 05:10:29;;;;;;;3.95;2.33;;;;;;;3.60;60.76;101437.69;10482990;28;20047;-78
2024/01/29 05:15:34;;;;;;;3.83;2.38;;;;;;;3.46;61.38;101432.84;10482914;28;20052;-77
2024/01/29 05:20:39;;;;;;;5.78;2.65;;;;;;;3.44;61.89;101431.16;10465669;28;20129;-78
2024/01/29 05:25:42;;;;;;;4.32;2.40;;;;;;;3.40;61.90;101425.09;10489246;28;20109;-77
2024/01/29 05:30:44;;;;;;;4.60;2.90;;;;;;;3.42;62.16;101435.66;10479940;28;20121;-76
2024/01/29 05:35:49;;;;;;;3.35;2.50;;;;;;;3.43;62.25;101438.28;10481695;28;20124;-78
2024/01/29 05:40:52;;;;;;;5.05;2.67;;;;;;;3.44;62.26;101440.00;10485702;28;20044;-77
2024/01/29 05:45:56;;;;;;;3.33;2.35;;;;;;;3.49;62.11;101447.81;10481592;28;20543;-77
2024/01/29 05:51:00;;;;;;;3.55;2.20;;;;;;;3.48;62.32;101454.03;10479849;28;20159;-78
2024/01/29 05:56:05;;;;;;;2.97;2.60;;;;;;;3.42;62.61;101455.13;10481419;28;20048;-79
2024/01/29 06:01:08;;;;;;;6.55;2.78;;;;;;;3.60;61.74;101456.28;10485434;28;20043;-78
2024/01/29 06:06:12;;;;;;;4.45;2.85;;;;;;;3.59;62.05;101445.69;10484110;28;20101;-78
2024/01/29 06:11:15;;;;;;;5.93;3.10;;;;;;;3.57;62.26;101451.06;10503467;28;20053;-78
2024/01/29 06:16:22;;;;;;;5.07;2.97;;;;;;;3.52;62.43;101461.00;10509706;28;20043;-78
2024/01/29 06:21:26;;;;;;;4.28;2.70;;;;;;;3.46;62.70;101456.75;10486236;28;20054;-79
2024/01/29 06:26:29;;;;;;;4.40;3.47;;;;;;;3.46;62.80;101466.53;10489576;28;20052;-78
2024/01/29 06:31:32;;;;;;;5.32;2.90;;;;;;;3.47;62.94;101474.41;10480344;28;20057;-79
2024/01/29 06:36:37;;;;;;;6.68;2.83;;;;;;;3.48;62.99;101483.25;10492662;28;20053;-78
2024/01/29 06:41:40;;;;;;;4.63;2.97;;;;;;;3.39;63.56;101470.28;10489279;28;20044;-78
2024/01/29 06:46:43;;;;;;;5.38;2.83;;;;;;;3.31;63.88;101473.19;10496985;28;20102;-77
2024/01/29 06:51:47;;;;;;;4.18;2.88;;;;;;;3.32;64.12;101484.69;10493364;28;20048;-78
2024/01/29 06:56:50;;;;;;;7.90;2.85;;;;;;;3.25;64.36;101482.25;10483679;28;20598;-78
2024/01/29 07:01:58;;;;;;;5.30;3.40;;;;;;;3.20;64.86;101489.50;10480953;28;20050;-78
2024/01/29 07:07:03;;;;;;;5.00;3.17;;;;;;;3.10;65.21;101484.53;10484805;28;20751;-78
2024/01/29 07:12:06;;;;;;;6.10;2.85;;;;;;;3.05;65.30;101493.53;10484444;28;20079;-78
2024/01/29 07:17:10;;;;;;;5.13;3.15;;;;;;;3.09;65.60;101493.41;10481636;28;20160;-78
2024/01/29 07:22:18;;;;;;;5.65;3.10;;;;;;;3.09;65.55;101502.25;10481655;28;20048;-78
2024/01/29 07:27:21;;;;;;;7.45;3.05;;;;;;;3.18;65.71;101507.28;10484453;28;20426;-78
2024/01/29 07:32:31;;;;;;;4.03;2.92;;;;;;;3.22;65.77;101508.91;10480427;28;20526;-78
2024/01/29 07:37:36;;;;;;;9.38;3.85;;;;;;;3.32;65.28;101506.84;10484893;28;20411;-78
2024/01/29 07:42:39;;;;;;;8.50;3.53;;;;;;;3.24;65.40;101498.25;10456973;28;20056;-77
2024/01/29 07:47:42;;;;;;;6.72;4.00;;;;;;;3.27;65.54;101499.00;10452695;28;20074;-78
2024/01/29 07:52:46;;;;;;;10.15;4.13;;;;;;;3.29;65.23;101501.59;10444879;28;20048;-77
2024/01/29 07:57:49;;;;;;;8.70;3.75;;;;;;;3.52;64.73;101506.16;10471644;28;20052;-77
2024/01/29 08:02:52;;;;;;;7.57;3.90;;;;;;;3.60;64.45;101505.91;10450355;28;20049;-78
2024/01/29 08:07:57;;;;;;;5.00;3.50;;;;;;;3.74;63.94;101503.63;10438224;28;20526;-78
2024/01/29 08:13:00;;;;;;;4.53;2.97;;;;;;;3.72;63.59;101506.34;10436585;28;20719;-77
2024/01/29 08:18:04;;;;;;;5.97;3.83;;;;;;;3.97;63.12;101502.81;10456524;28;20044;-77
2024/01/29 08:23:09;;;;;;;7.18;3.85;;;;;;;4.53;61.05;101499.88;10489450;28;20401;-75
2024/01/29 08:28:12;;;;;;;5.82;3.20;;;;;;;4.73;60.57;101493.78;10446199;28;20048;-78
2024/01/29 08:33:15;;;;;;;6.97;4.20;;;;;;;5.24;58.49;101487.31;10451527;28;20227;-79
2024/01/29 08:38:19;;;;;;;6.03;3.72;;;;;;;5.14;57.93;101491.28;10457283;28;20044;-77
2024/01/29 08:43:22;;;;;;;5.47;3.28;;;;;;;5.35;58.36;101476.22;10470506;28;20874;-77
2024/01/29 08:48:25;;;;;;;4.80;3.33;;;;;;;5.91;56.70;101480.03;10456969;28;20052;-77
2024/01/29 08:53:30;;;;;;;7.75;3.88;;;;;;;6.07;55.45;101488.22;10441945;28;20148;-77
2024/01/29 08:58:33;;;;;;;7.15;3.83;;;;;;;6.33;54.56;101477.22;10468463;28;20051;-77
2024/01/29 09:03:36;;;;;;;6.05;3.90;;;;;;;6.35;54.34;101487.84;10453392;28;20048;-77
2024/01/29 09:08:45;;;;;;;7.00;3.78;;;;;;;6.59;54.05;101478.69;10464501;28;20048;-77
2024/01/29 09:13:48;;;;;;;5.65;3.70;;;;;;;6.70;53.44;101475.53;10455020;28;20044;-77
2024/01/29 09:18:51;;;;;;;6.32;3.65;;;;;;;6.85;53.36;101479.25;10450405;28;20143;-78
2024/01/29 09:23:56;;;;;;;5.78;3.88;;;;;;;7.31;53.43;101479.72;10459466;28;20044;-77
2024/01/29 09:28:59;;;;;;;9.32;4.00;;;;;;;7.63;51.80;101477.22;10476045;28;20052;-78
2024/01/29 09:34:03;;;;;;;9.35;3.90;;;;;;;7.85;50.91;101482.34;10444352;28;20041;-78
2024/01/29 09:39:07;;;;;;;7.85;4.65;;;;;;;7.78;50.96;101495.16;10466712;28;20052;-77
2024/01/29 09:44:11;;;;;;;5.18;3.58;;;;;;;7.51;52.51;101486.72;10454923;28;20048;-77
2024/01/29 09:49:14;;;;;;;5.05;3.70;;;;;;;8.17;51.91;101502.03;10462805;28;20049;-79
2024/01/29 09:54:19;;;;;;;10.13;3.90;;;;;;;8.50;50.72;101499.41;10460422;28;20045;-79
2024/01/29 09:59:23;;;;;;;4.72;3.60;;;;;;;8.92;49.89;101511.34;10454186;28;20056;-77
2024/01/29 10:04:26;;;;;;;6.35;3.80;;;;;;;9.12;49.47;101512.88;10452744;28;20091;-77
2024/01/29 10:09:31;;;;;;;5.93;3.85;;;;;;;9.32;48.90;101506.38;10455125;28;20104;-79
2024/01/29 10:14:34;;;;;;;13.43;4.05;;;;;;;9.60;48.43;101512.81;10471923;28;20052;-78
2024/01/29 10:19:38;;;;;;;5.82;3.58;;;;;;;9.91;47.75;101506.50;10475821;28;20083;-79
2024/01/29 10:24:43;;;;;;;7.30;3.50;;;;;;;10.09;46.93;101507.19;10491813;28;20052;-79
2024/01/29 10:29:48;;;;;;;4.35;3.38;;;;;;;9.81;48.30;101506.16;10480751;28;20043;-77
2024/01/29 10:34:51;;;;;;;7.07;4.15;;;;;;;9.67;48.96;101506.13;10460705;28;20060;-77
2024/01/29 10:39:56;;;;;;;5.63;3.60;;;;;;;10.61;47.63;101517.38;10470538;28;20045;-79
2024/01/29 10:45:03;;;;;;;5.90;3.85;;;;;;;11.63;45.35;101514.38;10460790;28;20056;-78
2024/01/29 10:50:08;;;;;;;5.38;3.90;;;;;;;11.87;44.59;101517.19;10480583;28;20051;-78
2024/01/29 10:55:14;;;;;;;6.03;4.32;;;;;;;11.73;44.63;101518.13;10471419;28;20110;-79
2024/01/29 11:00:18;;;;;;;4.80;3.40;;;;;;;12.26;44.54;101518.97;10469595;28;20074;-78
2024/01/29 11:05:22;;;;;;;6.25;4.10;;;;;;;13.80;41.51;101505.03;10456115;28;20045;-78
2024/01/29 11:10:31;;;;;;;7.50;4.13;;;;;;;15.29;38.76;101496.69;10479417;28;20056;-79
2024/01/29 11:15:34;;;;;;;5.05;3.53;;;;;;;15.99;37.29;101503.41;10497273;28;20051;-79
2024/01/29 11:20:39;;;;;;;6.38;3.78;;;;;;;15.78;37.50;101495.28;10469499;28;20052;-76
2024/01/29 11:25:52;;;;;;;4.70;3.65;;;;;;;16.25;36.99;101505.69;10519827;27;20393;-77
2024/01/29 11:30:55;;;;;;;5.43;3.63;;;;;;;17.07;36.49;101499.31;10509151;27;20044;-78
2024/01/29 11:36:07;;;;;;;7.97;4.05;;;;;;;16.76;35.93;101510.25;10492513;28;20064;-77
2024/01/29 11:41:11;;;;;;;6.13;3.80;;;;;;;17.34;35.66;101494.09;10496094;28;20049;-79
2024/01/29 11:46:16;;;;;;;5.03;3.67;;;;;;;18.49;34.36;101502.25;10504300;28;21290;-78
2024/01/29 11:51:20;;;;;;;7.07;4.30;;;;;;;18.66;33.75;101483.41;10500505;28;20044;-79
2024/01/29 11:56:24;;;;;;;4.90;3.10;;;;;;;17.46;34.79;101490.25;10508182;28;20058;-76
2024/01/29 12:01:27;;;;;;;5.78;3.33;;;;;;;16.68;36.26;101496.50;10488150;28;20052;-79
2024/01/29 12:06:32;;;;;;;6.80;3.60;;;;;;;17.04;35.49;101495.03;10490605;28;20055;-79
2024/01/29 12:11:40;;;;;;;6.63;3.50;;;;;;;15.48;38.23;101493.31;10470016;28;20052;-79
2024/01/29 12:16:44;;;;;;;7.88;3.53;;;;;;;16.53;36.47;101487.88;10485212;28;20044;-80
2024/01/29 12:21:47;;;;;;;7.32;3.83;;;;;;;16.85;36.99;101481.41;10483282;28;20052;-79
2024/01/29 12:26:52;;;;;;;4.97;3.88;;;;;;;16.81;37.01;101491.66;10486463;28;20466;-78
2024/01/29 12:31:55;;;;;;;7.30;3.25;;;;;;;13.42;41.91;101493.47;10493459;28;20083;-77
2024/01/29 12:36:59;;;;;;;5.05;3.20;;;;;;;12.88;43.86;101493.88;10449762;28;20198;-79
2024/01/29 12:42:04;;;;;;;5.90;4.22;;;;;;;12.93;44.16;101489.00;10438845;28;20060;-78
2024/01/29 12:47:13;;;;;;;5.13;3.72;;;;;;;12.63;45.24;101484.03;10434010;28;20045;-77
2024/01/29 12:52:16;;;;;;;7.53;4.15;;;;;;;12.34;46.30;101486.09;10425943;28;20053;-79
2024/01/29 12:57:21;;;;;;;6.85;3.95;;;;;;;12.26;46.49;101485.75;10459588;28;20052;-77
2024/01/29 13:02:24;;;;;;;5.80;3.88;;;;;;;12.83;45.95;101485.25;10466364;28;20048;-77
2024/01/29 13:07:27;;;;;;;6.93;3.90;;;;;;;13.66;44.09;101487.22;10439212;28;20126;-79
2024/01/29 13:12:32;;;;;;;7.88;3.65;;;;;;;13.68;44.21;101485.22;10454521;28;20052;-79
2024/01/29 13:17:36;;;;;;;4.38;3.42;;;;;;;13.93;43.65;101489.59;10441755;28;20045;-79
2024/01/29 13:22:39;;;;;;;6.88;4.07;;;;;;;15.19;41.47;101493.00;10441564;28;20095;-79
2024/01/29 13:27:44;;;;;;;8.05;4.28;;;;;;;15.02;41.93;101491.72;10448622;28;20049;-78
2024/01/29 13:32:47;;;;;;;6.53;3.50;;;;;;;14.11;44.04;101488.16;10442987;28;20596;-79
2024/01/29 13:37:50;;;;;;;5.38;3.83;;;;;;;14.93;43.09;101490.63;10454997;28;20136;-81
2024/01/29 13:42:56;;;;;;;6.40;3.83;;;;;;;15.25;41.73;101479.84;10453164;28;20190;-79
2024/01/29 13:48:00;;;;;;;9.57;4.38;;;;;;;14.92;42.75;101472.69;10448056;28;20040;-79
2024/01/29 13:53:03;;;;;;;7.30;3.85;;;;;;;13.67;45.17;101475.41;10454825;28;20060;-79
2024/01/29 13:58:08;;;;;;;6.40;3.97;;;;;;;13.27;46.99;101482.00;10420228;28;20057;-79
2024/01/29 14:03:11;;;;;;;6.70;4.25;;;;;;;13.51;46.82;101480.28;10416009;28;20116;-79
2024/01/29 14:08:15;;;;;;;7.30;4.28;;;;;;;13.89;46.04;101478.16;10431899;28;20076;-79
2024/01/29 14:13:19;;;;;;;5.70;4.70;;;;;;;14.05;45.03;101474.28;10451930;28;20053;-80
2024/01/29 14:18:23;;;;;;;6.07;4.28;;;;;;;13.83;45.74;101475.09;10445596;28;20041;-79
2024/01/29 14:23:26;;;;;;;7.20;4.40;;;;;;;14.26;44.91;101486.09;10473799;28;20048;-79
2024/01/29 14:28:32;;;;;;;9.20;4.07;;;;;;;14.03;45.31;101495.16;10466737;28;20080;-79
2024/01/29 14:33:35;;;;;;;7.82;4.03;;;;;;;13.65;45.82;101496.25;10447844;28;20046;-79
2024/01/29 14:38:40;;;;;;;9.65;4.45;;;;;;;13.26;46.81;101493.75;10450911;28;20102;-79
2024/01/29 14:43:47;;;;;;;7.30;4.07;;;;;;;13.04;47.53;101494.47;10458496;28;20056;-78
2024/01/29 14:48:50;;;;;;;5.63;3.97;;;;;;;12.81;48.65;101493.47;10446514;28;20040;-79
2024/01/29 14:53:54;;;;;;;5.70;3.58;;;;;;;12.63;49.02;101500.19;10450478;28;20049;-78
2024/01/29 14:58:58;;;;;;;10.40;4.45;;;;;;;12.19;50.35;101506.03;10454114;28;20052;-78
2024/01/29 15:04:03;;;;;;;5.95;3.80;;;;;;;12.24;50.40;101498.50;10448296;28;20076;-79
2024/01/29 15:09:10;;;;;;;9.25;4.07;;;;;;;12.14;50.83;101498.25;10460973;28;20052;-81
2024/01/29 15:14:15;;;;;;;8.05;4.38;;;;;;;11.79;51.56;101495.31;10421619;28;20162;-79
2024/01/29 15:19:19;;;;;;;5.32;4.13;;;;;;;11.72;51.97;101501.13;10423989;28;20056;-79
2024/01/29 15:24:23;;;;;;;9.32;5.40;;;;;;;11.66;52.19;101500.69;10424395;28;20515;-77
2024/01/29 15:29:27;;;;;;;7.88;4.38;;;;;;;11.63;52.41;101495.53;10436201;28;20051;-78
2024/01/29 15:34:31;;;;;;;11.13;4.63;;;;;;;11.44;53.18;101498.59;10430778;28;20049;-79
2024/01/29 15:39:35;;;;;;;8.02;4.82;;;;;;;11.39;53.10;101509.66;10420557;28;20052;-80
2024/01/29 15:44:39;;;;;;;9.35;5.93;;;;;;;11.04;55.07;101517.31;10436316;28;20037;-80
2024/01/29 15:49:42;;;;;;;8.50;6.20;;;;;;;10.20;56.84;101522.66;10431271;28;20119;-79
2024/01/29 15:54:46;;;;;;;10.40;7.03;;;;;;;9.44;59.52;101516.41;10439365;28;20048;-79
2024/01/29 15:59:51;;;;;;;13.38;7.60;;;;;;;9.19;61.09;101518.78;10453959;28;20145;-79
2024/01/29 16:04:54;;;;;;;9.68;6.72;;;;;;;9.11;61.74;101527.25;10454735;28;20045;-78
2024/01/29 16:09:58;;;;;;;9.25;6.78;;;;;;;8.89;62.47;101522.25;10462259;28;20048;-78
2024/01/29 16:15:02;;;;;;;12.32;7.25;;;;;;;8.84;62.68;101527.84;10444619;28;20067;-77
2024/01/29 16:20:07;;;;;;;12.73;6.85;;;;;;;8.79;62.95;101529.91;10476738;28;20090;-77
2024/01/29 16:25:21;;;;;;;9.80;7.30;;;;;;;8.77;62.80;101536.31;10427008;28;20057;-76
2024/01/29 16:30:29;;;;;;;10.55;6.85;;;;;;;8.81;62.43;101537.88;10447758;28;20139;-76
2024/01/29 16:35:33;;;;;;;11.68;6.90;;;;;;;8.76;62.28;101539.94;10433421;28;20052;-76
2024/01/29 16:40:37;;;;;;;10.25;7.30;;;;;;;8.70;62.84;101540.28;10415562;28;20049;-76
2024/01/29 16:45:42;;;;;;;12.88;6.70;;;;;;;8.74;62.58;101547.19;10431090;28;20060;-76
2024/01/29 16:50:49;;;;;;;11.55;7.10;;;;;;;8.73;62.58;101550.84;10432726;28;20037;-75
2024/01/29 16:55:53;;;;;;;17.00;7.32;;;;;;;8.74;62.43;101549.88;10420751;28;20584;-78
2024/01/29 17:00:58;;;;;;;16.08;9.68;;;;;;;8.68;62.98;101544.84;10430473;28;20060;-77
2024/01/29 17:06:02;;;;;;;22.08;14.27;;;;;;;8.57;63.45;101546.31;10438044;28;20045;-76
2024/01/29 17:11:09;;;;;;;22.63;13.55;;;;;;;8.46;63.85;101545.16;10421821;28;20053;-75
2024/01/29 17:16:13;;;;;;;22.17;10.63;;;;;;;8.30;64.45;101545.94;10457172;28;20234;-76
2024/01/29 17:21:19;;;;;;;12.30;8.80;;;;;;;8.20;65.24;101550.06;10447042;28;20122;-74
2024/01/29 17:26:24;;;;;;;12.80;9.40;;;;;;;7.99;66.44;101551.19;10460582;28;20079;-75
2024/01/29 17:31:29;;;;;;;13.98;8.85;;;;;;;7.95;66.80;101556.69;10431285;28;20041;-77
2024/01/29 17:36:33;;;;;;;14.30;8.85;;;;;;;7.87;67.29;101552.66;10413377;28;20123;-78
2024/01/29 17:41:37;;;;;;;21.77;12.60;;;;;;;7.81;67.47;101563.69;10417418;28;20559;-76
2024/01/29 17:46:41;;;;;;;18.13;10.60;;;;;;;7.71;68.01;101561.47;10429192;28;20412;-77
2024/01/29 17:51:45;;;;;;;16.17;10.50;;;;;;;7.64;68.71;101557.38;10446578;28;20086;-78
2024/01/29 17:56:48;;;;;;;15.68;10.90;;;;;;;7.59;69.08;101556.72;10449232;28;20041;-77
2024/01/29 18:01:53;;;;;;;19.42;10.27;;;;;;;7.50;69.08;101559.88;10421689;28;20101;-77
2024/01/29 18:06:58;;;;;;;15.32;9.95;;;;;;;7.41;69.73;101565.69;10435763;28;20048;-78
2024/01/29 18:12:01;;;;;;;20.00;10.20;;;;;;;7.37;70.05;101564.09;10445259;28;20059;-77
2024/01/29 18:17:06;;;;;;;20.33;10.70;;;;;;;7.26;70.59;101560.13;10440129;28;20423;-78
2024/01/29 18:22:09;;;;;;;27.77;12.73;;;;;;;7.23;70.58;101576.31;10443815;28;20067;-77
2024/01/29 18:27:14;;;;;;;17.20;11.52;;;;;;;7.17;71.20;101570.41;10444167;28;20049;-77
2024/01/29 18:32:19;;;;;;;22.00;13.38;;;;;;;7.13;71.31;101582.16;10430928;28;20533;-77
2024/01/29 18:37:22;;;;;;;26.33;14.80;;;;;;;7.04;71.42;101581.66;10434111;28;20828;-74
2024/01/29 18:42:29;;;;;;;18.08;13.45;;;;;;;7.00;71.87;101584.56;10424392;28;20163;-77
2024/01/29 18:47:34;;;;;;;17.60;12.15;;;;;;;6.98;71.94;101584.63;10407625;28;20052;-77
2024/01/29 18:52:38;;;;;;;18.65;11.55;;;;;;;6.93;72.18;101583.09;10437823;28;20238;-77
2024/01/29 18:57:41;;;;;;;21.55;11.90;;;;;;;6.83;72.32;101586.19;10417118;28;20682;-77
2024/01/29 19:02:45;;;;;;;16.65;11.30;;;;;;;6.78;72.86;101593.53;10429634;28;20060;-78
2024/01/29 19:07:49;;;;;;;17.27;11.98;;;;;;;6.74;73.18;101593.75;10454086;28;20048;-76
2024/01/29 19:12:53;;;;;;;17.70;11.27;;;;;;;6.69;73.34;101595.75;10422524;28;20068;-77
2024/01/29 19:17:58;;;;;;;21.55;13.77;;;;;;;6.73;73.05;101603.56;10425328;28;20049;-77
2024/01/29 19:23:02;;;;;;;21.65;12.23;;;;;;;6.73;72.75;101606.22;10440536;28;20045;-76
2024/01/29 19:28:06;;;;;;;27.25;15.23;;;;;;;6.69;73.09;101601.09;10407279;28;20706;-78
2024/01/29 19:33:11;;;;;;;22.23;13.60;;;;;;;6.68;73.10;101605.56;10411054;28;20045;-78
2024/01/29 19:38:15;;;;;;;22.20;13.77;;;;;;;6.58;73.37;101607.81;10439401;28;20072;-78
2024/01/29 19:43:18;;;;;;;19.10;12.45;;;;;;;6.60;73.20;101610.38;10426494;28;20049;-78
2024/01/29 19:48:23;;;;;;;21.52;13.07;;;;;;;6.57;73.20;101602.53;10462308;28;20052;-78
2024/01/29 19:53:26;;;;;;;19.02;11.05;;;;;;;6.50;73.48;101611.72;10461126;28;20202;-77
2024/01/29 19:58:29;;;;;;;18.08;11.18;;;;;;;6.48;73.51;101608.28;10448126;28;20628;-77
2024/01/29 20:03:34;;;;;;;16.20;11.10;;;;;;;6.34;74.21;101612.44;10469954;28;20182;-79
2024/01/29 20:08:37;;;;;;;16.73;10.27;;;;;;;6.32;74.55;101616.09;10456096;28;20571;-78
2024/01/29 20:13:41;;;;;;;13.30;10.43;;;;;;;6.29;74.86;101610.91;10429584;28;20052;-78
2024/01/29 20:18:45;;;;;;;19.75;12.60;;;;;;;6.27;74.93;101613.63;10442035;28;20056;-77
2024/01/29 20:23:51;;;;;;;17.13;12.10;;;;;;;6.21;75.20;101610.34;10425502;28;20056;-77
2024/01/29 20:28:55;;;;;;;21.80;13.57;;;;;;;6.11;75.64;101602.72;10427901;28;20049;-79
2024/01/29 20:34:02;;;;;;;23.25;13.27;;;;;;;6.04;76.11;101603.94;10428848;28;20139;-77
2024/01/29 20:39:05;;;;;;;20.55;13.35;;;;;;;5.95;76.46;101604.31;10429913;28;20048;-78
2024/01/29 20:44:08;;;;;;;22.00;13.07;;;;;;;5.91;76.85;101608.91;10428247;28;20136;-80
2024/01/29 20:49:13;;;;;;;20.08;13.73;;;;;;;5.85;77.24;101609.19;10432150;28;20049;-79
2024/01/29 20:54:16;;;;;;;20.70;13.63;;;;;;;5.84;77.52;101611.91;10424628;28;20056;-78
2024/01/29 20:59:19;;;;;;;17.92;12.80;;;;;;;5.81;77.60;101604.91;10436830;28;20065;-78
2024/01/29 21:04:26;;;;;;;20.52;13.00;;;;;;;5.80;77.84;101607.66;10436982;28;20045;-78
2024/01/29 21:09:30;;;;;;;20.63;13.02;;;;;;;5.77;77.97;101603.31;10450052;28;20542;-79
2024/01/29 21:14:33;;;;;;;23.40;13.43;;;;;;;5.71;78.13;101604.44;10467092;28;20434;-79
2024/01/29 21:19:40;;;;;;;19.35;11.80;;;;;;;5.65;78.44;101602.03;10448469;28;20044;-80
2024/01/29 21:24:44;;;;;;;19.77;11.98;;;;;;;5.62;78.50;101595.94;10416009;28;20072;-79
2024/01/29 21:29:47;;;;;;;19.65;12.68;;;;;;;5.48;79.33;101594.69;10434000;28;20045;-79
2024/01/29 21:34:51;;;;;;;21.30;13.32;;;;;;;5.43;79.74;101599.38;10421448;28;20048;-78
2024/01/29 21:39:55;;;;;;;25.23;13.57;;;;;;;5.44;79.94;101605.56;10439002;28;20052;-78
2024/01/29 21:45:00;;;;;;;21.60;12.57;;;;;;;5.28;80.78;101603.50;10465491;28;20060;-79
2024/01/29 21:50:05;;;;;;;21.40;13.00;;;;;;;5.29;80.92;101599.03;10452232;28;20059;-78
2024/01/29 21:55:09;;;;;;;18.58;13.15;;;;;;;5.26;81.11;101604.47;10447572;28;20523;-77
2024/01/29 22:00:13;;;;;;;24.23;13.75;;;;;;;5.21;81.54;101606.44;10431910;28;20052;-77
2024/01/29 22:05:18;;;;;;;22.33;14.32;;;;;;;5.13;81.83;101605.88;10447707;28;20397;-78
2024/01/29 22:10:21;;;;;;;20.15;12.52;;;;;;;5.02;82.48;101604.53;10432614;28;20088;-79
2024/01/29 22:15:24;;;;;;;21.75;13.35;;;;;;;5.02;82.74;101606.31;10448013;28;20048;-80
2024/01/29 22:20:29;;;;;;;19.20;13.88;;;;;;;4.94;83.37;101603.03;10429919;28;20048;-80
2024/01/29 22:25:32;;;;;;;22.70;14.40;;;;;;;4.98;83.24;101602.84;10444243;28;20375;-80
2024/01/29 22:30:35;;;;;;;24.48;14.57;;;;;;;4.96;83.42;101607.34;10444726;28;20327;-79
2024/01/29 22:35:39;;;;;;;21.95;14.18;;;;;;;4.95;83.57;101602.97;10466715;28;20048;-80
2024/01/29 22:40:43;;;;;;;25.17;14.15;;;;;;;4.95;83.90;101607.44;10461906;28;20534;-76
2024/01/29 22:45:46;;;;;;;26.80;14.73;;;;;;;4.93;83.88;101607.47;10468761;28;20052;-79
2024/01/29 22:50:50;;;;;;;23.50;15.95;;;;;;;4.71;84.77;101614.53;10465185;28;20055;-77
2024/01/29 22:56:18;;;;;;;24.52;15.38;;;;;;;4.89;84.41;101613.00;10450374;28;20048;-80
2024/01/29 23:01:21;;;;;;;24.10;14.95;;;;;;;4.81;84.70;101613.28;10448933;28;20050;-78
2024/01/29 23:06:26;;;;;;;22.83;16.05;;;;;;;4.98;84.11;101608.19;10413063;28;20048;-77
2024/01/29 23:11:29;;;;;;;20.42;13.35;;;;;;;4.79;85.20;101608.00;10452196;28;20053;-78
2024/01/29 23:16:32;;;;;;;20.77;14.50;;;;;;;4.74;85.59;101617.94;10456763;28;21634;-78
2024/01/29 23:21:41;;;;;;;24.98;15.38;;;;;;;4.78;85.71;101608.06;10465274;28;20071;-79
2024/01/29 23:26:46;;;;;;;27.75;16.77;;;;;;;4.76;86.24;101617.91;10460347;28;20044;-78
2024/01/29 23:31:49;;;;;;;31.42;18.00;;;;;;;4.80;86.06;101615.09;10433939;28;20041;-78
2024/01/29 23:36:54;;;;;;;27.17;16.02;;;;;;;4.77;86.05;101611.66;10438065;28;20036;-78